Time;durP1;ratioP1;P1;durP2;ratioP2;P2;SDS_P1;SDS_P2;PMS_P1;PMS_P2;Temp;Humidity;BMP_temperature;BMP_pressure;BME280_temperature;BME280_humidity;BME280_pressure;Samples;Min_cycle;Max_cycle;Signal;HPM_P1;HPM_P2
2022/03/26 00:01:30;;;;;;;49.07;30.77;;;;;;;;;;4937028;29;20439;-91
2022/03/26 00:04:36;;;;;;;49.70;31.57;;;;;;;;;;4947634;29;20439;-92
2022/03/26 00:07:41;;;;;;;45.40;30.10;;;;;;;;;;4929577;29;20565;-95
2022/03/26 00:10:47;;;;;;;50.73;30.60;;;;;;;;;;4931259;29;20427;-94
2022/03/26 00:13:53;;;;;;;51.70;30.90;;;;;;;;;;4930340;29;20591;-94
2022/03/26 00:17:00;;;;;;;45.47;27.83;;;;;;;;;;4948619;29;20451;-94
2022/03/26 00:20:05;;;;;;;50.47;30.17;;;;;;;;;;4914707;29;20410;-94
2022/03/26 00:23:11;;;;;;;44.53;29.83;;;;;;;;;;4947978;29;20513;-96
2022/03/26 00:26:17;;;;;;;51.23;32.13;;;;;;;;;;4927842;29;20444;-95
2022/03/26 00:29:26;;;;;;;53.73;31.70;;;;;;;;;;4912601;29;20444;-94
2022/03/26 00:32:32;;;;;;;53.03;29.97;;;;;;;;;;4915909;29;20463;-94
2022/03/26 00:35:37;;;;;;;59.00;31.70;;;;;;;;;;4931299;29;20436;-95
2022/03/26 00:38:43;;;;;;;49.33;28.60;;;;;;;;;;4928779;29;20428;-94
2022/03/26 00:41:49;;;;;;;54.73;30.90;;;;;;;;;;4910736;29;20433;-94
2022/03/26 00:44:58;;;;;;;46.73;31.40;;;;;;;;;;4934428;29;20478;-95
2022/03/26 00:48:04;;;;;;;52.17;30.20;;;;;;;;;;4922473;29;20483;-94
2022/03/26 00:51:10;;;;;;;50.93;29.03;;;;;;;;;;4912756;29;20491;-94
2022/03/26 00:54:16;;;;;;;50.43;29.70;;;;;;;;;;4903415;29;20431;-94
2022/03/26 00:57:22;;;;;;;50.70;31.47;;;;;;;;;;4934690;29;20462;-95
2022/03/26 01:00:30;;;;;;;49.00;30.90;;;;;;;;;;4940184;29;20419;-94
2022/03/26 01:03:35;;;;;;;50.07;32.77;;;;;;;;;;4933707;29;20416;-94
2022/03/26 01:06:55;;;;;;;44.27;27.37;;;;;;;;;;4928624;29;20989;-95
2022/03/26 01:10:01;;;;;;;52.13;31.00;;;;;;;;;;4932327;29;20487;-96
2022/03/26 01:13:06;;;;;;;55.47;30.37;;;;;;;;;;4943145;29;20435;-93
2022/03/26 01:16:12;;;;;;;53.60;32.33;;;;;;;;;;4923805;29;20425;-94
2022/03/26 01:19:18;;;;;;;49.67;29.67;;;;;;;;;;4922250;29;20426;-94
2022/03/26 01:22:24;;;;;;;53.80;33.23;;;;;;;;;;4935049;29;20424;-93
2022/03/26 01:25:32;;;;;;;43.83;30.40;;;;;;;;;;4944731;29;20538;-93
2022/03/26 01:28:36;;;;;;;46.80;31.20;;;;;;;;;;4928610;29;20523;-94
2022/03/26 01:31:42;;;;;;;48.30;29.87;;;;;;;;;;4927460;29;20435;-94
2022/03/26 01:34:51;;;;;;;48.87;31.23;;;;;;;;;;4937210;29;20419;-93
2022/03/26 01:38:01;;;;;;;64.43;33.33;;;;;;;;;;4942283;29;20522;-94
2022/03/26 01:41:02;;;;;;;56.90;31.07;;;;;;;;;;4933530;29;20934;-94
2022/03/26 01:44:08;;;;;;;53.30;31.20;;;;;;;;;;4941912;29;20439;-94
2022/03/26 01:47:14;;;;;;;52.47;32.50;;;;;;;;;;4930885;29;20867;-93
2022/03/26 01:50:23;;;;;;;65.97;32.93;;;;;;;;;;4932339;29;20886;-93
2022/03/26 01:53:26;;;;;;;52.60;32.10;;;;;;;;;;4934645;29;20458;-93
2022/03/26 01:56:32;;;;;;;58.33;33.27;;;;;;;;;;4927518;29;20680;-94
2022/03/26 01:59:38;;;;;;;49.37;32.00;;;;;;;;;;4931444;29;20443;-93
2022/03/26 02:02:44;;;;;;;50.73;31.87;;;;;;;;;;4941907;29;20407;-93
2022/03/26 02:05:49;;;;;;;50.27;30.57;;;;;;;;;;4948721;29;20388;-93
2022/03/26 02:08:55;;;;;;;51.13;30.10;;;;;;;;;;4942527;29;20974;-94
2022/03/26 02:12:01;;;;;;;47.77;31.17;;;;;;;;;;4956569;28;20443;-93
2022/03/26 02:15:07;;;;;;;61.67;33.33;;;;;;;;;;4950906;28;20435;-94
2022/03/26 02:18:13;;;;;;;56.13;32.60;;;;;;;;;;4955451;29;20565;-92
2022/03/26 02:21:19;;;;;;;57.63;33.27;;;;;;;;;;4916906;29;20435;-94
2022/03/26 02:24:25;;;;;;;63.00;33.90;;;;;;;;;;4935226;29;20493;-94
2022/03/26 02:27:31;;;;;;;51.87;27.97;;;;;;;;;;4935281;29;20457;-94
2022/03/26 02:30:36;;;;;;;52.77;31.90;;;;;;;;;;4897879;29;20417;-94
2022/03/26 02:33:45;;;;;;;55.13;33.43;;;;;;;;;;4907578;29;20423;-95
2022/03/26 02:36:51;;;;;;;60.07;32.37;;;;;;;;;;4916883;29;20454;-95
2022/03/26 02:39:57;;;;;;;61.80;32.70;;;;;;;;;;4948798;29;20482;-94
2022/03/26 02:43:06;;;;;;;52.03;32.67;;;;;;;;;;4943968;29;20413;-94
2022/03/26 02:46:09;;;;;;;51.90;31.83;;;;;;;;;;4918516;29;20971;-94
2022/03/26 02:49:15;;;;;;;49.30;31.30;;;;;;;;;;4925551;29;20451;-94
2022/03/26 02:52:22;;;;;;;54.03;31.40;;;;;;;;;;4937097;28;20482;-94
2022/03/26 02:55:26;;;;;;;54.27;32.70;;;;;;;;;;4939384;29;20496;-94
2022/03/26 02:58:35;;;;;;;53.40;32.77;;;;;;;;;;4933548;29;20881;-95
2022/03/26 03:01:41;;;;;;;54.93;33.30;;;;;;;;;;4927444;29;20402;-93
2022/03/26 03:04:50;;;;;;;59.47;31.77;;;;;;;;;;4930420;29;20429;-94
2022/03/26 03:08:00;;;;;;;55.03;34.07;;;;;;;;;;4931993;29;20441;-95
2022/03/26 03:11:07;;;;;;;55.67;33.50;;;;;;;;;;4930032;29;20506;-93
2022/03/26 03:14:12;;;;;;;54.87;34.03;;;;;;;;;;4928741;29;20417;-94
2022/03/26 03:17:18;;;;;;;55.33;33.53;;;;;;;;;;4922627;29;20513;-94
2022/03/26 03:20:25;;;;;;;56.90;31.53;;;;;;;;;;4939856;29;20390;-93
2022/03/26 03:23:30;;;;;;;56.20;33.07;;;;;;;;;;4941899;29;20497;-93
2022/03/26 03:26:39;;;;;;;52.20;33.07;;;;;;;;;;4928035;29;20506;-94
2022/03/26 03:29:45;;;;;;;56.57;33.30;;;;;;;;;;4899178;29;20427;-93
2022/03/26 03:32:51;;;;;;;55.90;35.30;;;;;;;;;;4905672;29;20431;-94
2022/03/26 03:35:56;;;;;;;56.80;33.40;;;;;;;;;;4934154;29;20423;-93
2022/03/26 03:39:02;;;;;;;58.70;32.33;;;;;;;;;;4929621;29;20435;-93
2022/03/26 03:42:09;;;;;;;56.53;34.00;;;;;;;;;;4904920;29;20827;-93
2022/03/26 03:45:14;;;;;;;57.20;34.70;;;;;;;;;;4903444;29;20821;-94
2022/03/26 03:48:20;;;;;;;57.57;33.97;;;;;;;;;;4927686;29;21007;-93
2022/03/26 03:51:29;;;;;;;51.30;30.57;;;;;;;;;;4930251;29;20431;-94
2022/03/26 03:54:35;;;;;;;56.20;34.53;;;;;;;;;;4926337;29;20431;-94
2022/03/26 03:57:44;;;;;;;58.93;33.63;;;;;;;;;;4911294;29;20418;-94
2022/03/26 04:00:49;;;;;;;63.10;36.07;;;;;;;;;;4945663;29;20664;-94
2022/03/26 04:03:58;;;;;;;52.60;31.93;;;;;;;;;;4918012;29;20419;-95
2022/03/26 04:07:05;;;;;;;57.50;31.67;;;;;;;;;;4924030;29;20474;-95
2022/03/26 04:10:10;;;;;;;56.10;34.87;;;;;;;;;;4936021;29;20462;-93
2022/03/26 04:13:16;;;;;;;55.17;32.83;;;;;;;;;;4924538;29;20417;-94
2022/03/26 04:16:22;;;;;;;59.83;34.30;;;;;;;;;;4933652;29;20409;-94
2022/03/26 04:19:28;;;;;;;52.97;33.77;;;;;;;;;;4918310;29;20413;-95
2022/03/26 04:22:34;;;;;;;61.87;35.60;;;;;;;;;;4899861;29;20963;-94
2022/03/26 04:25:40;;;;;;;70.33;35.70;;;;;;;;;;4917441;29;20918;-94
2022/03/26 04:28:46;;;;;;;59.30;34.30;;;;;;;;;;4906594;29;20956;-95
2022/03/26 04:31:51;;;;;;;59.07;33.10;;;;;;;;;;4921038;29;20942;-96
2022/03/26 04:34:57;;;;;;;61.27;32.17;;;;;;;;;;4925436;29;20408;-94
2022/03/26 04:37:47;;;;;;;58.53;34.27;;;;;;;;;;4922992;29;20483;-96
2022/03/26 04:40:16;;;;;;;57.57;35.97;;;;;;;;;;4927547;29;20515;-96
2022/03/26 04:42:42;;;;;;;58.70;34.90;;;;;;;;;;4935534;29;20443;-94
2022/03/26 04:45:09;;;;;;;54.43;34.30;;;;;;;;;;4930783;29;20578;-96
2022/03/26 04:47:36;;;;;;;49.93;31.97;;;;;;;;;;4931051;29;20463;-96
2022/03/26 04:50:05;;;;;;;61.80;37.07;;;;;;;;;;4943057;29;20910;-93
2022/03/26 04:52:33;;;;;;;59.80;35.50;;;;;;;;;;4915887;29;20437;-95
2022/03/26 04:55:06;;;;;;;61.50;36.67;;;;;;;;;;4936704;29;20402;-95
2022/03/26 04:57:32;;;;;;;58.17;35.27;;;;;;;;;;4921008;29;20513;-96
2022/03/26 04:59:58;;;;;;;64.13;36.60;;;;;;;;;;4932135;29;20427;-95
2022/03/26 05:02:28;;;;;;;55.43;35.47;;;;;;;;;;4946512;29;20469;-95
2022/03/26 05:04:56;;;;;;;61.07;34.33;;;;;;;;;;4944374;29;20773;-96
2022/03/26 05:07:48;;;;;;;62.90;37.10;;;;;;;;;;4938797;29;20478;-95
2022/03/26 05:10:18;;;;;;;53.47;34.77;;;;;;;;;;4912873;29;20796;-96
2022/03/26 05:12:47;;;;;;;69.43;37.83;;;;;;;;;;4930136;29;20454;-94
2022/03/26 05:15:16;;;;;;;67.57;38.10;;;;;;;;;;4945917;29;20411;-96
2022/03/26 05:17:45;;;;;;;60.90;34.60;;;;;;;;;;4925846;29;20475;-95
2022/03/26 05:20:14;;;;;;;59.77;34.60;;;;;;;;;;4929907;29;20466;-95
2022/03/26 05:22:41;;;;;;;63.23;35.80;;;;;;;;;;4924709;29;20432;-95
2022/03/26 05:25:08;;;;;;;65.17;37.70;;;;;;;;;;4942932;29;20439;-95
2022/03/26 05:27:35;;;;;;;59.07;37.10;;;;;;;;;;4920915;29;20437;-93
2022/03/26 05:30:01;;;;;;;54.43;34.20;;;;;;;;;;4944579;29;20439;-94
2022/03/26 05:32:27;;;;;;;56.37;35.17;;;;;;;;;;4930700;29;20447;-94
2022/03/26 05:34:53;;;;;;;59.83;36.90;;;;;;;;;;4944996;29;20443;-94
2022/03/26 05:37:19;;;;;;;58.27;36.07;;;;;;;;;;4930168;29;20479;-96
2022/03/26 05:39:46;;;;;;;65.47;35.07;;;;;;;;;;4932310;29;20406;-93
2022/03/26 05:42:12;;;;;;;57.83;36.67;;;;;;;;;;4934627;29;20428;-94
2022/03/26 05:44:38;;;;;;;54.83;32.03;;;;;;;;;;4935288;29;20506;-95
2022/03/26 05:47:04;;;;;;;60.70;35.33;;;;;;;;;;4934632;29;20414;-94
2022/03/26 05:49:30;;;;;;;57.50;34.87;;;;;;;;;;4935514;29;20409;-94
2022/03/26 05:51:56;;;;;;;52.37;30.90;;;;;;;;;;4934396;29;20434;-94
2022/03/26 05:54:23;;;;;;;58.83;34.13;;;;;;;;;;4939610;29;20421;-95
2022/03/26 05:56:51;;;;;;;59.40;35.90;;;;;;;;;;4937321;29;20438;-96
2022/03/26 05:59:21;;;;;;;55.90;34.73;;;;;;;;;;4924616;29;20447;-95
2022/03/26 06:01:56;;;;;;;56.53;34.30;;;;;;;;;;4938559;29;20442;-95
2022/03/26 06:04:27;;;;;;;58.20;35.70;;;;;;;;;;4931336;29;20432;-94
2022/03/26 06:06:56;;;;;;;56.07;33.23;;;;;;;;;;4935560;29;20506;-96
2022/03/26 06:09:27;;;;;;;59.97;36.87;;;;;;;;;;4942498;28;20482;-95
2022/03/26 06:11:53;;;;;;;64.00;34.40;;;;;;;;;;4929558;29;20385;-95
2022/03/26 06:14:23;;;;;;;57.67;34.20;;;;;;;;;;4949065;29;20458;-95
2022/03/26 06:16:58;;;;;;;52.43;31.10;;;;;;;;;;4930790;29;21007;-94
2022/03/26 06:19:26;;;;;;;52.93;33.67;;;;;;;;;;4911470;29;20436;-95
2022/03/26 06:21:53;;;;;;;53.47;32.33;;;;;;;;;;4946757;29;20414;-85
2022/03/26 06:24:24;;;;;;;62.07;31.50;;;;;;;;;;4931736;29;20406;-95
2022/03/26 06:26:55;;;;;;;52.87;32.93;;;;;;;;;;4932646;29;20474;-95
2022/03/26 06:29:21;;;;;;;51.10;33.10;;;;;;;;;;4913182;29;20432;-94
2022/03/26 06:31:53;;;;;;;54.47;30.50;;;;;;;;;;4923848;29;20388;-96
2022/03/26 06:34:24;;;;;;;47.20;29.20;;;;;;;;;;4929665;29;20940;-95
2022/03/26 06:36:50;;;;;;;49.80;30.63;;;;;;;;;;4927474;29;20484;-95
2022/03/26 06:39:16;;;;;;;45.40;30.47;;;;;;;;;;4938084;29;20943;-95
2022/03/26 06:41:44;;;;;;;57.43;29.83;;;;;;;;;;4931327;29;20483;-96
2022/03/26 06:44:16;;;;;;;48.93;30.60;;;;;;;;;;4949491;29;20450;-93
2022/03/26 06:46:42;;;;;;;45.43;33.20;;;;;;;;;;4927703;29;20428;-95
2022/03/26 06:49:10;;;;;;;48.23;30.53;;;;;;;;;;4929834;29;20443;-93
2022/03/26 06:51:36;;;;;;;44.70;31.40;;;;;;;;;;4921539;29;20453;-93
2022/03/26 06:54:02;;;;;;;43.60;31.07;;;;;;;;;;4920194;29;20504;-95
2022/03/26 06:56:29;;;;;;;47.07;31.20;;;;;;;;;;4926711;29;20468;-95
2022/03/26 06:58:55;;;;;;;51.73;33.23;;;;;;;;;;4933140;29;20441;-95
2022/03/26 07:01:21;;;;;;;43.97;29.93;;;;;;;;;;4940075;29;20450;-95
2022/03/26 07:03:48;;;;;;;46.13;33.57;;;;;;;;;;4929617;29;20460;-96
2022/03/26 07:06:49;;;;;;;44.23;32.07;;;;;;;;;;4936269;29;20980;-96
2022/03/26 07:09:14;;;;;;;43.37;31.03;;;;;;;;;;4930189;29;20478;-95
2022/03/26 07:11:41;;;;;;;50.10;33.57;;;;;;;;;;4939280;29;20419;-94
2022/03/26 07:14:07;;;;;;;51.30;33.37;;;;;;;;;;4917777;29;20469;-94
2022/03/26 07:16:36;;;;;;;44.03;32.90;;;;;;;;;;4928993;29;20482;-95
2022/03/26 07:19:05;;;;;;;48.00;32.40;;;;;;;;;;4909254;29;20451;-94
2022/03/26 07:21:32;;;;;;;48.23;31.57;;;;;;;;;;4935332;29;20435;-95
2022/03/26 07:24:01;;;;;;;41.40;30.80;;;;;;;;;;4921736;29;20500;-95
2022/03/26 07:26:27;;;;;;;41.23;31.00;;;;;;;;;;4918700;29;21101;-92
2022/03/26 07:28:55;;;;;;;42.77;32.33;;;;;;;;;;4925783;29;20580;-95
2022/03/26 07:31:22;;;;;;;40.67;30.33;;;;;;;;;;4927958;29;20508;-94
2022/03/26 07:33:48;;;;;;;47.10;35.53;;;;;;;;;;4930840;29;20455;-94
2022/03/26 07:36:15;;;;;;;48.13;35.67;;;;;;;;;;4911414;29;20503;-96
2022/03/26 07:38:47;;;;;;;42.93;31.33;;;;;;;;;;4923783;29;20987;-96
2022/03/26 07:41:16;;;;;;;46.67;36.33;;;;;;;;;;4926073;29;20439;-96
2022/03/26 07:43:42;;;;;;;40.77;33.50;;;;;;;;;;4933129;29;20445;-95
2022/03/26 07:46:08;;;;;;;43.57;33.20;;;;;;;;;;4903991;29;20504;-89
2022/03/26 07:48:35;;;;;;;40.83;34.10;;;;;;;;;;4904168;29;20448;-90
2022/03/26 07:51:01;;;;;;;47.50;35.27;;;;;;;;;;4922312;29;20458;-93
2022/03/26 07:53:29;;;;;;;44.53;35.90;;;;;;;;;;4906789;29;20457;-91
2022/03/26 07:55:55;;;;;;;44.07;34.50;;;;;;;;;;4926139;29;20463;-94
2022/03/26 07:58:21;;;;;;;52.07;37.80;;;;;;;;;;4932307;29;20471;-93
2022/03/26 08:01:07;;;;;;;51.37;36.70;;;;;;;;;;4936564;29;20424;-94
2022/03/26 08:04:15;;;;;;;50.23;39.77;;;;;;;;;;4917117;29;20505;-95
2022/03/26 08:07:21;;;;;;;44.33;36.83;;;;;;;;;;4926896;29;20517;-94
2022/03/26 08:10:25;;;;;;;46.73;37.30;;;;;;;;;;4926550;29;20495;-93
2022/03/26 08:13:34;;;;;;;46.17;37.93;;;;;;;;;;4938634;29;20486;-92
2022/03/26 08:16:40;;;;;;;48.97;38.57;;;;;;;;;;4931520;29;20454;-94
2022/03/26 08:19:46;;;;;;;51.07;38.57;;;;;;;;;;4924653;29;20509;-91
2022/03/26 08:22:52;;;;;;;47.23;37.87;;;;;;;;;;4929345;29;20455;-95
2022/03/26 08:26:22;;;;;;;52.30;39.63;;;;;;;;;;4922936;29;20504;-93
2022/03/26 08:29:28;;;;;;;52.03;39.10;;;;;;;;;;4923073;29;20427;-94
2022/03/26 08:32:37;;;;;;;48.10;38.97;;;;;;;;;;4929670;29;20487;-93
2022/03/26 08:35:43;;;;;;;47.10;38.73;;;;;;;;;;4926581;29;20438;-94
2022/03/26 08:38:52;;;;;;;42.47;37.07;;;;;;;;;;4929367;29;20478;-94
2022/03/26 08:41:57;;;;;;;43.40;36.60;;;;;;;;;;4580952;29;9999842;-94
2022/03/26 08:45:46;;;;;;;48.30;38.20;;;;;;;;;;4912732;29;20509;-91
2022/03/26 08:48:14;;;;;;;38.33;33.90;;;;;;;;;;4921048;29;20494;-91
2022/03/26 08:51:18;;;;;;;43.80;36.30;;;;;;;;;;4923839;29;20494;-91
2022/03/26 08:54:24;;;;;;;39.93;35.37;;;;;;;;;;4921493;29;20459;-93
2022/03/26 08:57:36;;;;;;;39.03;33.80;;;;;;;;;;4945681;29;20577;-94
2022/03/26 09:00:48;;;;;;;38.50;34.00;;;;;;;;;;4935073;28;20443;-92
2022/03/26 09:03:51;;;;;;;37.80;33.63;;;;;;;;;;4930990;29;20420;-95
2022/03/26 09:06:58;;;;;;;40.30;33.77;;;;;;;;;;4918916;29;20455;-94
2022/03/26 09:10:07;;;;;;;34.90;31.10;;;;;;;;;;4932330;29;20553;-92
2022/03/26 09:13:16;;;;;;;35.10;29.67;;;;;;;;;;4933384;29;20440;-93
2022/03/26 09:16:21;;;;;;;35.57;31.80;;;;;;;;;;4933461;29;20456;-93
2022/03/26 09:19:25;;;;;;;41.33;33.83;;;;;;;;;;4935277;29;20476;-95
2022/03/26 09:22:31;;;;;;;48.10;33.40;;;;;;;;;;4927373;29;20431;-90
2022/03/26 09:25:37;;;;;;;43.73;33.03;;;;;;;;;;4934926;29;20428;-92
2022/03/26 09:28:44;;;;;;;39.93;31.90;;;;;;;;;;4942170;29;20423;-91
2022/03/26 09:31:48;;;;;;;42.63;33.23;;;;;;;;;;4912065;29;20496;-92
2022/03/26 09:34:54;;;;;;;37.97;33.97;;;;;;;;;;4937648;29;20420;-94
2022/03/26 09:38:13;;;;;;;36.90;30.73;;;;;;;;;;4923354;29;20492;-93
2022/03/26 09:41:20;;;;;;;37.57;31.60;;;;;;;;;;4916727;29;20528;-91
2022/03/26 09:44:25;;;;;;;35.50;30.00;;;;;;;;;;4938142;29;20558;-93
2022/03/26 09:47:31;;;;;;;35.50;31.50;;;;;;;;;;4914616;29;20421;-93
2022/03/26 09:50:39;;;;;;;34.10;30.73;;;;;;;;;;4934797;29;20423;-92
2022/03/26 09:53:49;;;;;;;37.23;28.30;;;;;;;;;;4945054;29;20434;-93
2022/03/26 09:56:55;;;;;;;31.67;28.27;;;;;;;;;;4931215;29;20542;-93
2022/03/26 10:00:05;;;;;;;34.80;28.60;;;;;;;;;;4935876;29;20475;-92
2022/03/26 10:03:11;;;;;;;32.80;28.93;;;;;;;;;;4937477;29;20443;-92
2022/03/26 10:06:42;;;;;;;31.50;28.10;;;;;;;;;;4938345;29;20432;-92
2022/03/26 10:09:27;;;;;;;33.40;28.53;;;;;;;;;;4947252;29;20507;-93
2022/03/26 10:12:33;;;;;;;33.23;29.60;;;;;;;;;;4937804;29;20465;-95
2022/03/26 10:15:19;;;;;;;31.57;27.83;;;;;;;;;;4613461;23;10001498;-86
2022/03/26 10:17:46;;;;;;;29.17;26.27;;;;;;;;;;4922086;29;20494;-89
2022/03/26 10:20:12;;;;;;;28.90;24.80;;;;;;;;;;4917526;28;20550;-85
2022/03/26 10:22:40;;;;;;;29.60;25.40;;;;;;;;;;4916558;29;20446;-84
2022/03/26 10:25:11;;;;;;;26.80;23.67;;;;;;;;;;4905779;28;20465;-87
2022/03/26 10:27:39;;;;;;;25.87;23.30;;;;;;;;;;4930540;29;20425;-84
2022/03/26 10:30:06;;;;;;;24.77;22.40;;;;;;;;;;4912472;28;20431;-85
2022/03/26 10:32:40;;;;;;;23.40;21.10;;;;;;;;;;4915836;29;20427;-86
2022/03/26 10:35:09;;;;;;;24.60;20.77;;;;;;;;;;4921340;29;20492;-85
2022/03/26 10:37:56;;;;;;;23.33;21.00;;;;;;;;;;4940625;23;20575;-91
2022/03/26 10:40:33;;;;;;;21.63;17.80;;;;;;;;;;4951059;23;20406;-85
2022/03/26 10:43:13;;;;;;;22.47;20.07;;;;;;;;;;4928292;29;20526;-85
2022/03/26 10:45:52;;;;;;;20.60;16.60;;;;;;;;;;4908377;29;20930;-85
2022/03/26 10:48:26;;;;;;;20.70;16.83;;;;;;;;;;4947750;28;20635;-84
2022/03/26 10:50:57;;;;;;;15.37;13.83;;;;;;;;;;4931154;28;20529;-85
2022/03/26 10:53:32;;;;;;;14.97;13.43;;;;;;;;;;4920339;29;20793;-85
2022/03/26 10:56:08;;;;;;;14.00;12.70;;;;;;;;;;4935214;28;20433;-85
2022/03/26 10:58:35;;;;;;;19.57;17.77;;;;;;;;;;4946965;28;20921;-85
2022/03/26 11:01:02;;;;;;;22.50;18.97;;;;;;;;;;4922784;29;20458;-90
2022/03/26 11:03:34;;;;;;;19.03;17.03;;;;;;;;;;4935155;28;20482;-87
2022/03/26 11:06:01;;;;;;;18.63;16.60;;;;;;;;;;4943021;28;20430;-87
2022/03/26 11:08:33;;;;;;;14.90;13.47;;;;;;;;;;4928350;29;20475;-84
2022/03/26 11:11:14;;;;;;;14.50;13.23;;;;;;;;;;4907457;29;20450;-87
2022/03/26 11:14:07;;;;;;;14.43;12.93;;;;;;;;;;4933376;28;20550;-88
2022/03/26 11:16:42;;;;;;;14.20;12.80;;;;;;;;;;4916322;29;20584;-88
2022/03/26 11:19:11;;;;;;;14.03;12.77;;;;;;;;;;4914579;29;20486;-90
2022/03/26 11:21:59;;;;;;;17.43;16.10;;;;;;;;;;4934292;28;20519;-89
2022/03/26 11:24:37;;;;;;;12.50;11.30;;;;;;;;;;4925962;29;20796;-88
2022/03/26 11:27:22;;;;;;;13.00;11.70;;;;;;;;;;4943047;28;20490;-86
2022/03/26 11:29:49;;;;;;;11.73;10.87;;;;;;;;;;4944264;28;21010;-86
2022/03/26 11:32:19;;;;;;;11.80;11.00;;;;;;;;;;4931013;28;20434;-87
2022/03/26 11:34:50;;;;;;;10.80;10.03;;;;;;;;;;4912859;29;20892;-88
2022/03/26 11:37:46;;;;;;;12.30;11.17;;;;;;;;;;4923593;29;20550;-87
2022/03/26 11:40:12;;;;;;;11.20;10.10;;;;;;;;;;4908333;29;20532;-86
2022/03/26 11:42:41;;;;;;;14.17;11.70;;;;;;;;;;4936295;28;20464;-90
2022/03/26 11:51:04;;;;;;;11.47;10.13;;;;;;;;;;4938243;28;20434;-88
2022/03/26 11:53:40;;;;;;;10.07;9.20;;;;;;;;;;4915379;29;20428;-87
2022/03/26 11:59:35;;;;;;;12.20;11.10;;;;;;;;;;4925541;29;20475;-88
2022/03/26 12:02:30;;;;;;;10.07;9.23;;;;;;;;;;4929669;29;20962;-84
2022/03/26 12:08:09;;;;;;;9.00;8.30;;;;;;;;;;4907987;29;20442;-85
2022/03/26 12:10:43;;;;;;;9.73;7.90;;;;;;;;;;4945896;28;20434;-86
2022/03/26 12:13:38;;;;;;;9.23;8.33;;;;;;;;;;4920341;29;20986;-86
2022/03/26 12:16:21;;;;;;;8.27;7.43;;;;;;;;;;4937500;28;20512;-88
2022/03/26 12:18:47;;;;;;;9.10;8.20;;;;;;;;;;4931341;29;20465;-90
2022/03/26 12:21:24;;;;;;;9.33;8.63;;;;;;;;;;4924016;29;20974;-85
2022/03/26 12:23:55;;;;;;;9.03;8.23;;;;;;;;;;4926527;29;20529;-88
2022/03/26 12:26:21;;;;;;;9.97;9.03;;;;;;;;;;4920460;29;20444;-87
2022/03/26 12:28:49;;;;;;;8.80;8.20;;;;;;;;;;4931056;29;21021;-86
2022/03/26 12:31:17;;;;;;;8.60;8.00;;;;;;;;;;4929380;29;20442;-87
2022/03/26 12:33:53;;;;;;;8.07;7.47;;;;;;;;;;4926453;29;20450;-85
2022/03/26 12:36:20;;;;;;;8.23;7.67;;;;;;;;;;4916760;29;20950;-79
2022/03/26 12:39:00;;;;;;;9.00;8.30;;;;;;;;;;4914505;29;20512;-83
2022/03/26 12:41:26;;;;;;;11.10;8.87;;;;;;;;;;4918310;29;20450;-84
2022/03/26 12:43:56;;;;;;;9.70;8.73;;;;;;;;;;4931240;29;20950;-85
2022/03/26 12:46:22;;;;;;;8.60;8.10;;;;;;;;;;4919703;28;20789;-82
2022/03/26 12:48:48;;;;;;;9.20;8.40;;;;;;;;;;4923984;29;21049;-82
2022/03/26 12:51:14;;;;;;;9.07;8.37;;;;;;;;;;4923788;29;20411;-85
2022/03/26 12:53:41;;;;;;;9.50;8.63;;;;;;;;;;4929639;28;20428;-82
2022/03/26 12:56:23;;;;;;;8.73;8.03;;;;;;;;;;4927392;29;20521;-85
2022/03/26 12:58:59;;;;;;;8.77;8.03;;;;;;;;;;4933600;28;20446;-86
2022/03/26 13:01:28;;;;;;;10.33;8.13;;;;;;;;;;4913590;29;20946;-86
2022/03/26 13:03:56;;;;;;;10.17;8.20;;;;;;;;;;4937541;28;20438;-86
2022/03/26 13:06:23;;;;;;;10.43;7.53;;;;;;;;;;4927639;29;20431;-86
2022/03/26 13:08:49;;;;;;;9.10;8.50;;;;;;;;;;4934572;28;20435;-87
2022/03/26 13:11:20;;;;;;;9.13;8.47;;;;;;;;;;4926447;29;20564;-86
2022/03/26 13:13:49;;;;;;;9.30;8.40;;;;;;;;;;4914977;29;20450;-86
2022/03/26 13:16:24;;;;;;;7.80;7.20;;;;;;;;;;4905005;29;20536;-90
2022/03/26 13:19:07;;;;;;;6.80;6.37;;;;;;;;;;4919383;29;20459;-89
2022/03/26 13:24:48;;;;;;;9.47;8.87;;;;;;;;;;4927245;29;20515;-86
2022/03/26 13:27:16;;;;;;;10.90;10.00;;;;;;;;;;4927328;28;20443;-85
2022/03/26 13:29:42;;;;;;;10.23;9.40;;;;;;;;;;4938920;28;20487;-86
2022/03/26 13:32:09;;;;;;;9.70;9.07;;;;;;;;;;4920390;29;20506;-85
2022/03/26 13:34:36;;;;;;;11.67;10.50;;;;;;;;;;4933232;29;20541;-86
2022/03/26 13:37:18;;;;;;;9.87;8.97;;;;;;;;;;4951657;28;20541;-86
2022/03/26 13:39:55;;;;;;;10.93;10.10;;;;;;;;;;4927858;29;20888;-86
2022/03/26 13:42:22;;;;;;;9.57;8.90;;;;;;;;;;4937653;28;20482;-86
2022/03/26 13:44:49;;;;;;;9.93;9.13;;;;;;;;;;4925775;29;20447;-82
2022/03/26 13:47:20;;;;;;;11.00;10.20;;;;;;;;;;4256633;28;10000681;-84
2022/03/26 13:49:48;;;;;;;11.27;10.30;;;;;;;;;;4928100;29;20883;-86
2022/03/26 13:52:27;;;;;;;9.93;9.30;;;;;;;;;;4924152;29;20459;-86
2022/03/26 13:54:59;;;;;;;12.20;10.90;;;;;;;;;;4927152;29;20487;-81
2022/03/26 13:57:56;;;;;;;10.90;9.90;;;;;;;;;;4916827;29;20987;-87
2022/03/26 14:00:29;;;;;;;9.60;8.87;;;;;;;;;;4909769;29;20540;-85
2022/03/26 14:02:55;;;;;;;10.90;9.77;;;;;;;;;;4942450;28;20501;-87
2022/03/26 14:05:31;;;;;;;9.90;9.13;;;;;;;;;;4917111;29;20435;-85
2022/03/26 14:08:00;;;;;;;11.40;10.40;;;;;;;;;;4927611;28;20439;-85
2022/03/26 14:10:34;;;;;;;8.97;8.47;;;;;;;;;;4937943;28;20442;-85
2022/03/26 14:13:00;;;;;;;10.80;9.80;;;;;;;;;;4910561;29;20499;-85
2022/03/26 14:15:27;;;;;;;13.63;9.33;;;;;;;;;;4916998;29;20485;-86
2022/03/26 14:17:53;;;;;;;11.77;10.60;;;;;;;;;;4921766;28;20522;-84
2022/03/26 14:20:20;;;;;;;9.90;9.13;;;;;;;;;;4927726;29;20954;-85
2022/03/26 14:22:49;;;;;;;9.33;8.73;;;;;;;;;;4912674;29;21004;-86
2022/03/26 14:25:15;;;;;;;9.17;8.40;;;;;;;;;;4934352;29;20411;-85
2022/03/26 14:27:42;;;;;;;9.90;8.97;;;;;;;;;;4920456;29;20605;-87
2022/03/26 14:30:08;;;;;;;9.53;8.87;;;;;;;;;;4940090;28;20443;-85
2022/03/26 14:32:34;;;;;;;11.60;9.80;;;;;;;;;;4925655;29;20445;-87
2022/03/26 14:35:03;;;;;;;9.90;9.10;;;;;;;;;;4944388;28;20446;-84
2022/03/26 14:37:29;;;;;;;10.40;9.60;;;;;;;;;;4904277;29;20637;-84
2022/03/26 14:39:55;;;;;;;11.67;9.00;;;;;;;;;;4928749;29;20436;-85
2022/03/26 14:42:21;;;;;;;11.47;10.27;;;;;;;;;;4938329;28;20487;-84
2022/03/26 14:44:48;;;;;;;10.83;9.93;;;;;;;;;;4927771;29;20471;-83
2022/03/26 14:47:14;;;;;;;9.93;9.20;;;;;;;;;;4913230;29;20495;-86
2022/03/26 14:49:40;;;;;;;13.97;10.80;;;;;;;;;;4938636;28;20946;-84
2022/03/26 14:52:08;;;;;;;12.40;11.23;;;;;;;;;;4922815;29;21012;-86
2022/03/26 14:54:34;;;;;;;9.87;9.00;;;;;;;;;;4935354;28;20461;-86
2022/03/26 14:57:00;;;;;;;11.20;10.27;;;;;;;;;;4918330;29;20665;-85
2022/03/26 14:59:26;;;;;;;11.53;10.40;;;;;;;;;;4933340;29;20463;-85
2022/03/26 15:01:53;;;;;;;10.10;9.33;;;;;;;;;;4927316;29;20459;-85
2022/03/26 15:04:19;;;;;;;12.20;11.00;;;;;;;;;;4912835;29;20460;-82
2022/03/26 15:06:46;;;;;;;10.87;9.83;;;;;;;;;;4911290;29;20648;-83
2022/03/26 15:09:12;;;;;;;12.50;11.63;;;;;;;;;;4936659;28;20440;-85
2022/03/26 15:11:38;;;;;;;12.83;11.70;;;;;;;;;;4926664;29;20639;-85
2022/03/26 15:14:04;;;;;;;11.40;10.40;;;;;;;;;;4927139;29;20843;-84
2022/03/26 15:16:30;;;;;;;11.70;10.70;;;;;;;;;;4942251;28;20814;-83
2022/03/26 15:18:56;;;;;;;11.77;10.77;;;;;;;;;;4924531;29;20938;-84
2022/03/26 15:21:22;;;;;;;12.27;10.87;;;;;;;;;;4926277;29;20451;-87
2022/03/26 15:23:48;;;;;;;11.33;9.77;;;;;;;;;;4923405;29;20569;-87
2022/03/26 15:26:14;;;;;;;13.30;10.63;;;;;;;;;;4934433;28;20624;-83
2022/03/26 15:28:40;;;;;;;11.77;10.77;;;;;;;;;;4919487;29;20518;-85
2022/03/26 15:31:06;;;;;;;12.13;11.10;;;;;;;;;;4947774;28;20442;-84
2022/03/26 15:33:33;;;;;;;11.37;10.27;;;;;;;;;;4932514;28;20509;-84
2022/03/26 15:35:59;;;;;;;13.03;11.33;;;;;;;;;;4932401;29;20427;-84
2022/03/26 15:38:25;;;;;;;14.13;12.83;;;;;;;;;;4923315;29;20871;-83
2022/03/26 15:40:51;;;;;;;13.50;11.67;;;;;;;;;;4913199;28;20974;-85
2022/03/26 15:43:17;;;;;;;11.53;10.33;;;;;;;;;;4914872;29;20512;-84
2022/03/26 15:45:43;;;;;;;12.47;11.37;;;;;;;;;;4916249;29;20447;-85
2022/03/26 15:48:10;;;;;;;12.43;11.17;;;;;;;;;;4933809;28;20604;-85
2022/03/26 15:50:36;;;;;;;16.33;14.83;;;;;;;;;;4921849;29;20538;-84
2022/03/26 15:53:03;;;;;;;15.87;14.47;;;;;;;;;;4933068;29;20446;-82
2022/03/26 15:55:29;;;;;;;15.07;12.77;;;;;;;;;;4919773;29;20439;-84
2022/03/26 15:57:59;;;;;;;17.27;13.10;;;;;;;;;;4932260;28;20512;-85
2022/03/26 16:00:27;;;;;;;15.13;13.73;;;;;;;;;;4913510;29;20577;-85
2022/03/26 16:02:53;;;;;;;15.80;13.60;;;;;;;;;;4938934;28;20787;-86
2022/03/26 16:05:19;;;;;;;15.40;13.77;;;;;;;;;;4921053;29;20495;-84
2022/03/26 16:07:45;;;;;;;15.00;13.40;;;;;;;;;;4916206;29;20888;-86
2022/03/26 16:10:11;;;;;;;17.20;13.60;;;;;;;;;;4950495;28;20426;-85
2022/03/26 16:12:37;;;;;;;13.73;12.40;;;;;;;;;;4915895;29;20439;-84